sensor_id;sensor_type;location;lat;lon;timestamp;P1;durP1;ratioP1;P2;durP2;ratioP2
56405;SDS011;42305;51.444;-2.584;2022-08-05T00:01:48;2.90;;;2.90;;
56405;SDS011;42305;51.444;-2.584;2022-08-05T00:04:15;2.60;;;2.60;;
56405;SDS011;42305;51.444;-2.584;2022-08-05T00:06:41;3.03;;;3.03;;
56405;SDS011;42305;51.444;-2.584;2022-08-05T00:09:07;2.92;;;2.92;;
56405;SDS011;42305;51.444;-2.584;2022-08-05T00:11:33;3.40;;;3.30;;
56405;SDS011;42305;51.444;-2.584;2022-08-05T00:13:59;3.60;;;3.40;;
56405;SDS011;42305;51.444;-2.584;2022-08-05T00:16:25;2.90;;;2.90;;
56405;SDS011;42305;51.444;-2.584;2022-08-05T00:18:51;2.90;;;2.90;;
56405;SDS011;42305;51.444;-2.584;2022-08-05T00:21:17;3.13;;;3.13;;
56405;SDS011;42305;51.444;-2.584;2022-08-05T00:23:44;3.40;;;3.30;;
56405;SDS011;42305;51.444;-2.584;2022-08-05T00:26:10;3.40;;;3.30;;
56405;SDS011;42305;51.444;-2.584;2022-08-05T00:28:36;4.85;;;4.65;;
56405;SDS011;42305;51.444;-2.584;2022-08-05T00:31:03;3.20;;;3.20;;
56405;SDS011;42305;51.444;-2.584;2022-08-05T00:33:29;3.05;;;3.05;;
56405;SDS011;42305;51.444;-2.584;2022-08-05T00:35:55;3.13;;;3.13;;
56405;SDS011;42305;51.444;-2.584;2022-08-05T00:38:21;3.20;;;3.13;;
56405;SDS011;42305;51.444;-2.584;2022-08-05T00:40:51;3.25;;;3.17;;
56405;SDS011;42305;51.444;-2.584;2022-08-05T00:43:18;3.15;;;3.15;;
56405;SDS011;42305;51.444;-2.584;2022-08-05T00:45:44;2.88;;;2.88;;
56405;SDS011;42305;51.444;-2.584;2022-08-05T00:48:13;3.08;;;3.08;;
56405;SDS011;42305;51.444;-2.584;2022-08-05T00:50:39;3.20;;;3.20;;
56405;SDS011;42305;51.444;-2.584;2022-08-05T00:53:06;2.63;;;2.63;;
56405;SDS011;42305;51.444;-2.584;2022-08-05T00:55:32;3.13;;;3.13;;
56405;SDS011;42305;51.444;-2.584;2022-08-05T00:57:58;2.75;;;2.75;;
56405;SDS011;42305;51.444;-2.584;2022-08-05T01:00:25;2.40;;;2.40;;
56405;SDS011;42305;51.444;-2.584;2022-08-05T01:02:51;2.47;;;2.47;;
56405;SDS011;42305;51.444;-2.584;2022-08-05T01:05:17;2.60;;;2.60;;
56405;SDS011;42305;51.444;-2.584;2022-08-05T01:07:43;3.70;;;3.60;;
56405;SDS011;42305;51.444;-2.584;2022-08-05T01:10:09;3.17;;;3.08;;
56405;SDS011;42305;51.444;-2.584;2022-08-05T01:12:37;2.80;;;2.80;;
56405;SDS011;42305;51.444;-2.584;2022-08-05T01:15:07;2.45;;;2.45;;
56405;SDS011;42305;51.444;-2.584;2022-08-05T01:20:23;3.30;;;3.25;;
56405;SDS011;42305;51.444;-2.584;2022-08-05T01:22:53;5.53;;;3.65;;
56405;SDS011;42305;51.444;-2.584;2022-08-05T01:33:08;3.33;;;3.30;;
56405;SDS011;42305;51.444;-2.584;2022-08-05T01:35:34;4.15;;;3.80;;
56405;SDS011;42305;51.444;-2.584;2022-08-05T01:38:02;3.25;;;3.20;;
56405;SDS011;42305;51.444;-2.584;2022-08-05T01:40:29;3.58;;;3.47;;
56405;SDS011;42305;51.444;-2.584;2022-08-05T01:42:56;4.35;;;4.03;;
56405;SDS011;42305;51.444;-2.584;2022-08-05T01:45:24;3.35;;;3.25;;
56405;SDS011;42305;51.444;-2.584;2022-08-05T01:47:51;3.60;;;3.50;;
56405;SDS011;42305;51.444;-2.584;2022-08-05T01:50:21;2.95;;;2.95;;
56405;SDS011;42305;51.444;-2.584;2022-08-05T01:52:49;3.63;;;3.42;;
56405;SDS011;42305;51.444;-2.584;2022-08-05T01:55:19;3.60;;;3.50;;
56405;SDS011;42305;51.444;-2.584;2022-08-05T01:57:45;3.20;;;3.20;;
56405;SDS011;42305;51.444;-2.584;2022-08-05T02:00:12;3.42;;;3.33;;
56405;SDS011;42305;51.444;-2.584;2022-08-05T02:02:47;3.20;;;3.20;;
56405;SDS011;42305;51.444;-2.584;2022-08-05T02:05:16;3.15;;;3.15;;
56405;SDS011;42305;51.444;-2.584;2022-08-05T02:07:44;3.47;;;3.38;;
56405;SDS011;42305;51.444;-2.584;2022-08-05T02:10:10;3.20;;;3.20;;
56405;SDS011;42305;51.444;-2.584;2022-08-05T02:12:45;3.05;;;3.05;;
56405;SDS011;42305;51.444;-2.584;2022-08-05T02:15:27;2.90;;;2.90;;
56405;SDS011;42305;51.444;-2.584;2022-08-05T02:18:01;2.83;;;2.83;;
56405;SDS011;42305;51.444;-2.584;2022-08-05T02:20:29;3.22;;;3.22;;
56405;SDS011;42305;51.444;-2.584;2022-08-05T02:23:01;3.00;;;3.00;;
56405;SDS011;42305;51.444;-2.584;2022-08-05T02:25:30;5.35;;;3.35;;
56405;SDS011;42305;51.444;-2.584;2022-08-05T02:27:57;3.70;;;3.60;;
56405;SDS011;42305;51.444;-2.584;2022-08-05T02:30:37;3.58;;;3.47;;
56405;SDS011;42305;51.444;-2.584;2022-08-05T02:33:04;3.50;;;3.40;;
56405;SDS011;42305;51.444;-2.584;2022-08-05T02:35:31;3.63;;;3.53;;
56405;SDS011;42305;51.444;-2.584;2022-08-05T02:37:58;3.50;;;3.40;;
56405;SDS011;42305;51.444;-2.584;2022-08-05T02:40:25;3.30;;;3.20;;
56405;SDS011;42305;51.444;-2.584;2022-08-05T02:42:51;3.55;;;3.45;;
56405;SDS011;42305;51.444;-2.584;2022-08-05T02:45:18;4.13;;;4.03;;
56405;SDS011;42305;51.444;-2.584;2022-08-05T02:47:44;3.40;;;3.30;;
56405;SDS011;42305;51.444;-2.584;2022-08-05T02:50:11;4.60;;;4.15;;
56405;SDS011;42305;51.444;-2.584;2022-08-05T02:52:37;3.45;;;3.35;;
56405;SDS011;42305;51.444;-2.584;2022-08-05T02:55:05;3.35;;;3.25;;
56405;SDS011;42305;51.444;-2.584;2022-08-05T02:57:32;3.53;;;3.42;;
56405;SDS011;42305;51.444;-2.584;2022-08-05T02:59:59;3.83;;;3.72;;
56405;SDS011;42305;51.444;-2.584;2022-08-05T03:02:28;3.63;;;3.53;;
56405;SDS011;42305;51.444;-2.584;2022-08-05T03:04:56;3.60;;;3.50;;
56405;SDS011;42305;51.444;-2.584;2022-08-05T03:07:22;3.70;;;3.60;;
56405;SDS011;42305;51.444;-2.584;2022-08-05T03:09:49;3.00;;;3.00;;
56405;SDS011;42305;51.444;-2.584;2022-08-05T03:12:34;3.70;;;3.60;;
56405;SDS011;42305;51.444;-2.584;2022-08-05T03:15:00;3.50;;;3.40;;
56405;SDS011;42305;51.444;-2.584;2022-08-05T03:17:26;4.03;;;3.92;;
56405;SDS011;42305;51.444;-2.584;2022-08-05T03:19:53;4.00;;;3.90;;
56405;SDS011;42305;51.444;-2.584;2022-08-05T03:22:19;4.00;;;3.90;;
56405;SDS011;42305;51.444;-2.584;2022-08-05T03:24:46;3.55;;;3.45;;
56405;SDS011;42305;51.444;-2.584;2022-08-05T03:27:13;3.75;;;3.65;;
56405;SDS011;42305;51.444;-2.584;2022-08-05T03:29:39;3.53;;;3.42;;
56405;SDS011;42305;51.444;-2.584;2022-08-05T03:32:09;3.85;;;3.75;;
56405;SDS011;42305;51.444;-2.584;2022-08-05T03:34:35;3.85;;;3.75;;
56405;SDS011;42305;51.444;-2.584;2022-08-05T03:37:02;3.60;;;3.50;;
56405;SDS011;42305;51.444;-2.584;2022-08-05T03:39:28;3.78;;;3.67;;
56405;SDS011;42305;51.444;-2.584;2022-08-05T03:41:55;3.90;;;3.80;;
56405;SDS011;42305;51.444;-2.584;2022-08-05T03:44:21;3.70;;;3.60;;
56405;SDS011;42305;51.444;-2.584;2022-08-05T03:46:47;3.50;;;3.40;;
56405;SDS011;42305;51.444;-2.584;2022-08-05T03:49:13;3.90;;;3.80;;
56405;SDS011;42305;51.444;-2.584;2022-08-05T03:52:01;3.80;;;3.70;;
56405;SDS011;42305;51.444;-2.584;2022-08-05T03:56:51;4.00;;;3.90;;
56405;SDS011;42305;51.444;-2.584;2022-08-05T03:59:22;3.80;;;3.70;;
56405;SDS011;42305;51.444;-2.584;2022-08-05T04:01:49;3.20;;;3.20;;
56405;SDS011;42305;51.444;-2.584;2022-08-05T04:04:16;4.40;;;4.30;;
56405;SDS011;42305;51.444;-2.584;2022-08-05T04:06:44;3.28;;;3.28;;
56405;SDS011;42305;51.444;-2.584;2022-08-05T04:09:10;4.10;;;4.00;;
56405;SDS011;42305;51.444;-2.584;2022-08-05T04:11:36;3.85;;;3.75;;
56405;SDS011;42305;51.444;-2.584;2022-08-05T04:14:03;3.70;;;3.60;;
56405;SDS011;42305;51.444;-2.584;2022-08-05T04:16:31;3.80;;;3.70;;
56405;SDS011;42305;51.444;-2.584;2022-08-05T04:18:59;3.80;;;3.70;;
56405;SDS011;42305;51.444;-2.584;2022-08-05T04:21:25;4.10;;;4.00;;
56405;SDS011;42305;51.444;-2.584;2022-08-05T04:23:51;4.10;;;4.00;;
56405;SDS011;42305;51.444;-2.584;2022-08-05T04:26:17;3.97;;;3.88;;
56405;SDS011;42305;51.444;-2.584;2022-08-05T04:28:43;3.67;;;3.58;;
56405;SDS011;42305;51.444;-2.584;2022-08-05T04:31:09;3.90;;;3.80;;
56405;SDS011;42305;51.444;-2.584;2022-08-05T04:33:36;4.00;;;3.90;;
56405;SDS011;42305;51.444;-2.584;2022-08-05T04:36:02;4.00;;;3.90;;
56405;SDS011;42305;51.444;-2.584;2022-08-05T04:38:28;4.10;;;4.00;;
56405;SDS011;42305;51.444;-2.584;2022-08-05T04:40:54;4.05;;;3.95;;
56405;SDS011;42305;51.444;-2.584;2022-08-05T04:43:20;4.10;;;4.00;;
56405;SDS011;42305;51.444;-2.584;2022-08-05T04:45:46;3.97;;;3.88;;
56405;SDS011;42305;51.444;-2.584;2022-08-05T04:48:13;4.10;;;4.00;;
56405;SDS011;42305;51.444;-2.584;2022-08-05T04:50:43;4.15;;;4.05;;
56405;SDS011;42305;51.444;-2.584;2022-08-05T04:53:09;3.70;;;3.60;;
56405;SDS011;42305;51.444;-2.584;2022-08-05T04:55:36;4.03;;;3.92;;
56405;SDS011;42305;51.444;-2.584;2022-08-05T04:58:03;3.75;;;3.65;;
56405;SDS011;42305;51.444;-2.584;2022-08-05T05:00:41;4.18;;;4.07;;
56405;SDS011;42305;51.444;-2.584;2022-08-05T05:03:07;4.20;;;4.10;;
56405;SDS011;42305;51.444;-2.584;2022-08-05T05:05:34;3.85;;;3.75;;
56405;SDS011;42305;51.444;-2.584;2022-08-05T05:08:02;4.07;;;3.97;;
56405;SDS011;42305;51.444;-2.584;2022-08-05T05:10:29;4.30;;;4.20;;
56405;SDS011;42305;51.444;-2.584;2022-08-05T05:12:56;4.20;;;4.10;;
56405;SDS011;42305;51.444;-2.584;2022-08-05T05:15:22;4.20;;;4.10;;
56405;SDS011;42305;51.444;-2.584;2022-08-05T05:17:48;3.70;;;3.60;;
56405;SDS011;42305;51.444;-2.584;2022-08-05T05:20:14;4.07;;;3.97;;
56405;SDS011;42305;51.444;-2.584;2022-08-05T05:22:40;4.10;;;4.00;;
56405;SDS011;42305;51.444;-2.584;2022-08-05T05:25:06;4.50;;;4.40;;
56405;SDS011;42305;51.444;-2.584;2022-08-05T05:27:33;4.05;;;3.95;;
56405;SDS011;42305;51.444;-2.584;2022-08-05T05:30:00;4.30;;;4.20;;
56405;SDS011;42305;51.444;-2.584;2022-08-05T05:32:26;4.00;;;3.90;;
56405;SDS011;42305;51.444;-2.584;2022-08-05T05:34:52;4.10;;;4.00;;
56405;SDS011;42305;51.444;-2.584;2022-08-05T05:37:18;4.05;;;3.95;;
56405;SDS011;42305;51.444;-2.584;2022-08-05T05:39:44;4.00;;;3.90;;
56405;SDS011;42305;51.444;-2.584;2022-08-05T05:42:10;4.10;;;4.00;;
56405;SDS011;42305;51.444;-2.584;2022-08-05T05:44:36;4.10;;;4.00;;
56405;SDS011;42305;51.444;-2.584;2022-08-05T05:47:02;3.60;;;3.50;;
56405;SDS011;42305;51.444;-2.584;2022-08-05T05:49:28;3.90;;;3.80;;
56405;SDS011;42305;51.444;-2.584;2022-08-05T05:51:54;4.40;;;4.30;;
56405;SDS011;42305;51.444;-2.584;2022-08-05T05:54:20;3.50;;;3.40;;
56405;SDS011;42305;51.444;-2.584;2022-08-05T05:56:47;4.00;;;3.90;;
56405;SDS011;42305;51.444;-2.584;2022-08-05T05:59:13;3.80;;;3.70;;
56405;SDS011;42305;51.444;-2.584;2022-08-05T06:01:40;3.30;;;3.30;;
56405;SDS011;42305;51.444;-2.584;2022-08-05T06:04:10;3.90;;;3.80;;
56405;SDS011;42305;51.444;-2.584;2022-08-05T06:06:38;3.65;;;3.55;;
56405;SDS011;42305;51.444;-2.584;2022-08-05T06:09:05;3.47;;;3.38;;
56405;SDS011;42305;51.444;-2.584;2022-08-05T06:11:31;3.45;;;3.35;;
56405;SDS011;42305;51.444;-2.584;2022-08-05T06:13:58;3.92;;;3.83;;
56405;SDS011;42305;51.444;-2.584;2022-08-05T06:16:24;3.80;;;3.70;;
56405;SDS011;42305;51.444;-2.584;2022-08-05T06:18:50;3.42;;;3.33;;
56405;SDS011;42305;51.444;-2.584;2022-08-05T06:21:16;3.90;;;3.80;;
56405;SDS011;42305;51.444;-2.584;2022-08-05T06:23:42;3.50;;;3.40;;
56405;SDS011;42305;51.444;-2.584;2022-08-05T06:26:10;3.17;;;3.17;;
56405;SDS011;42305;51.444;-2.584;2022-08-05T06:28:37;3.67;;;3.58;;
56405;SDS011;42305;51.444;-2.584;2022-08-05T06:31:03;3.70;;;3.60;;
56405;SDS011;42305;51.444;-2.584;2022-08-05T06:33:29;4.82;;;4.63;;
56405;SDS011;42305;51.444;-2.584;2022-08-05T06:35:55;4.03;;;3.92;;
56405;SDS011;42305;51.444;-2.584;2022-08-05T06:38:21;3.78;;;3.67;;
56405;SDS011;42305;51.444;-2.584;2022-08-05T06:40:47;4.90;;;4.70;;
56405;SDS011;42305;51.444;-2.584;2022-08-05T06:43:13;3.58;;;3.47;;
56405;SDS011;42305;51.444;-2.584;2022-08-05T06:45:39;3.10;;;3.10;;
56405;SDS011;42305;51.444;-2.584;2022-08-05T06:48:05;3.88;;;3.78;;
56405;SDS011;42305;51.444;-2.584;2022-08-05T06:50:31;3.05;;;3.05;;
56405;SDS011;42305;51.444;-2.584;2022-08-05T06:52:57;3.72;;;3.63;;
56405;SDS011;42305;51.444;-2.584;2022-08-05T06:55:23;3.50;;;3.40;;
56405;SDS011;42305;51.444;-2.584;2022-08-05T06:57:49;3.13;;;3.10;;
56405;SDS011;42305;51.444;-2.584;2022-08-05T07:00:15;3.60;;;3.50;;
56405;SDS011;42305;51.444;-2.584;2022-08-05T07:02:43;3.33;;;3.22;;
56405;SDS011;42305;51.444;-2.584;2022-08-05T07:05:10;3.63;;;3.53;;
56405;SDS011;42305;51.444;-2.584;2022-08-05T07:07:36;3.60;;;3.50;;
56405;SDS011;42305;51.444;-2.584;2022-08-05T07:10:03;3.08;;;3.08;;
56405;SDS011;42305;51.444;-2.584;2022-08-05T07:12:29;4.10;;;3.90;;
56405;SDS011;42305;51.444;-2.584;2022-08-05T07:15:14;3.55;;;3.45;;
56405;SDS011;42305;51.444;-2.584;2022-08-05T07:17:58;3.50;;;3.40;;
56405;SDS011;42305;51.444;-2.584;2022-08-05T07:20:24;3.50;;;3.40;;
56405;SDS011;42305;51.444;-2.584;2022-08-05T07:22:50;3.20;;;3.20;;
56405;SDS011;42305;51.444;-2.584;2022-08-05T07:25:16;2.88;;;2.88;;
56405;SDS011;42305;51.444;-2.584;2022-08-05T07:27:42;3.33;;;3.22;;
56405;SDS011;42305;51.444;-2.584;2022-08-05T07:30:08;3.25;;;3.15;;
56405;SDS011;42305;51.444;-2.584;2022-08-05T07:32:35;3.15;;;3.13;;
56405;SDS011;42305;51.444;-2.584;2022-08-05T07:35:01;3.13;;;3.13;;
56405;SDS011;42305;51.444;-2.584;2022-08-05T07:37:31;2.65;;;2.65;;
56405;SDS011;42305;51.444;-2.584;2022-08-05T07:39:57;3.83;;;3.60;;
56405;SDS011;42305;51.444;-2.584;2022-08-05T07:42:23;7.03;;;4.50;;
56405;SDS011;42305;51.444;-2.584;2022-08-05T07:44:49;3.15;;;3.05;;
56405;SDS011;42305;51.444;-2.584;2022-08-05T07:47:15;5.30;;;3.67;;
56405;SDS011;42305;51.444;-2.584;2022-08-05T07:49:41;3.20;;;3.20;;
56405;SDS011;42305;51.444;-2.584;2022-08-05T07:52:08;2.72;;;2.72;;
56405;SDS011;42305;51.444;-2.584;2022-08-05T07:54:34;3.00;;;3.00;;
56405;SDS011;42305;51.444;-2.584;2022-08-05T07:57:00;3.35;;;3.25;;
56405;SDS011;42305;51.444;-2.584;2022-08-05T07:59:27;3.28;;;3.17;;
56405;SDS011;42305;51.444;-2.584;2022-08-05T08:01:53;2.83;;;2.83;;
56405;SDS011;42305;51.444;-2.584;2022-08-05T08:04:19;2.85;;;2.85;;
56405;SDS011;42305;51.444;-2.584;2022-08-05T08:06:45;2.80;;;2.80;;
56405;SDS011;42305;51.444;-2.584;2022-08-05T08:09:11;2.83;;;2.80;;
56405;SDS011;42305;51.444;-2.584;2022-08-05T08:11:37;2.60;;;2.60;;
56405;SDS011;42305;51.444;-2.584;2022-08-05T08:14:03;12.65;;;3.30;;
56405;SDS011;42305;51.444;-2.584;2022-08-05T08:16:30;7.28;;;3.72;;
56405;SDS011;42305;51.444;-2.584;2022-08-05T08:18:56;2.72;;;2.72;;
56405;SDS011;42305;51.444;-2.584;2022-08-05T08:21:22;3.00;;;2.95;;
56405;SDS011;42305;51.444;-2.584;2022-08-05T08:23:49;2.58;;;2.58;;
56405;SDS011;42305;51.444;-2.584;2022-08-05T08:26:15;2.58;;;2.58;;
56405;SDS011;42305;51.444;-2.584;2022-08-05T08:28:41;2.65;;;2.65;;
56405;SDS011;42305;51.444;-2.584;2022-08-05T08:31:07;2.30;;;2.30;;
56405;SDS011;42305;51.444;-2.584;2022-08-05T08:33:33;2.40;;;2.40;;
56405;SDS011;42305;51.444;-2.584;2022-08-05T08:35:59;2.65;;;2.65;;
56405;SDS011;42305;51.444;-2.584;2022-08-05T08:38:25;2.55;;;2.53;;
56405;SDS011;42305;51.444;-2.584;2022-08-05T08:40:51;2.60;;;2.60;;
56405;SDS011;42305;51.444;-2.584;2022-08-05T08:43:18;2.70;;;2.70;;
56405;SDS011;42305;51.444;-2.584;2022-08-05T08:45:45;2.35;;;2.33;;
56405;SDS011;42305;51.444;-2.584;2022-08-05T08:48:14;2.70;;;2.70;;
56405;SDS011;42305;51.444;-2.584;2022-08-05T08:50:41;2.05;;;2.05;;
56405;SDS011;42305;51.444;-2.584;2022-08-05T08:53:09;4.20;;;3.00;;
56405;SDS011;42305;51.444;-2.584;2022-08-05T08:55:35;2.45;;;2.40;;
56405;SDS011;42305;51.444;-2.584;2022-08-05T08:58:01;2.50;;;2.50;;
56405;SDS011;42305;51.444;-2.584;2022-08-05T09:00:28;3.33;;;3.17;;
56405;SDS011;42305;51.444;-2.584;2022-08-05T09:03:00;2.60;;;2.50;;
56405;SDS011;42305;51.444;-2.584;2022-08-05T09:05:26;2.90;;;2.80;;
56405;SDS011;42305;51.444;-2.584;2022-08-05T09:07:53;3.35;;;3.13;;
56405;SDS011;42305;51.444;-2.584;2022-08-05T09:10:19;2.90;;;2.90;;
56405;SDS011;42305;51.444;-2.584;2022-08-05T09:12:46;2.97;;;2.90;;
56405;SDS011;42305;51.444;-2.584;2022-08-05T09:15:12;3.42;;;3.20;;
56405;SDS011;42305;51.444;-2.584;2022-08-05T09:17:38;2.75;;;2.75;;
56405;SDS011;42305;51.444;-2.584;2022-08-05T09:20:05;2.90;;;2.83;;
56405;SDS011;42305;51.444;-2.584;2022-08-05T09:25:17;2.42;;;2.42;;
56405;SDS011;42305;51.444;-2.584;2022-08-05T09:27:45;2.85;;;2.75;;
56405;SDS011;42305;51.444;-2.584;2022-08-05T09:30:11;2.38;;;2.38;;
56405;SDS011;42305;51.444;-2.584;2022-08-05T09:32:41;2.75;;;2.65;;
56405;SDS011;42305;51.444;-2.584;2022-08-05T09:35:08;2.30;;;2.30;;
56405;SDS011;42305;51.444;-2.584;2022-08-05T09:37:36;4.05;;;3.75;;
56405;SDS011;42305;51.444;-2.584;2022-08-05T09:40:02;2.70;;;2.70;;
56405;SDS011;42305;51.444;-2.584;2022-08-05T09:42:37;2.25;;;2.25;;
56405;SDS011;42305;51.444;-2.584;2022-08-05T09:45:07;2.63;;;2.63;;
56405;SDS011;42305;51.444;-2.584;2022-08-05T09:47:33;2.65;;;2.65;;
56405;SDS011;42305;51.444;-2.584;2022-08-05T09:49:59;2.20;;;2.20;;
56405;SDS011;42305;51.444;-2.584;2022-08-05T09:52:26;2.75;;;2.65;;
56405;SDS011;42305;51.444;-2.584;2022-08-05T09:54:57;2.53;;;2.53;;
56405;SDS011;42305;51.444;-2.584;2022-08-05T09:57:43;2.05;;;2.05;;
56405;SDS011;42305;51.444;-2.584;2022-08-05T10:05:07;2.22;;;2.22;;
56405;SDS011;42305;51.444;-2.584;2022-08-05T10:10:08;2.20;;;2.20;;
56405;SDS011;42305;51.444;-2.584;2022-08-05T10:12:45;2.20;;;2.20;;
56405;SDS011;42305;51.444;-2.584;2022-08-05T10:15:19;2.78;;;2.78;;
56405;SDS011;42305;51.444;-2.584;2022-08-05T10:20:35;1.80;;;1.77;;
56405;SDS011;42305;51.444;-2.584;2022-08-05T10:23:01;2.20;;;1.92;;
56405;SDS011;42305;51.444;-2.584;2022-08-05T10:25:27;2.90;;;1.92;;
56405;SDS011;42305;51.444;-2.584;2022-08-05T10:27:54;2.28;;;2.20;;
56405;SDS011;42305;51.444;-2.584;2022-08-05T10:30:23;2.92;;;2.72;;
56405;SDS011;42305;51.444;-2.584;2022-08-05T10:32:49;2.20;;;2.20;;
56405;SDS011;42305;51.444;-2.584;2022-08-05T10:35:15;1.90;;;1.90;;
56405;SDS011;42305;51.444;-2.584;2022-08-05T10:37:41;2.65;;;2.53;;
56405;SDS011;42305;51.444;-2.584;2022-08-05T10:40:22;2.67;;;2.67;;
56405;SDS011;42305;51.444;-2.584;2022-08-05T10:42:50;1.92;;;1.92;;
56405;SDS011;42305;51.444;-2.584;2022-08-05T10:45:22;1.90;;;1.90;;
56405;SDS011;42305;51.444;-2.584;2022-08-05T10:47:49;3.22;;;2.47;;
56405;SDS011;42305;51.444;-2.584;2022-08-05T10:50:16;2.30;;;2.30;;
56405;SDS011;42305;51.444;-2.584;2022-08-05T10:52:47;2.42;;;2.38;;
56405;SDS011;42305;51.444;-2.584;2022-08-05T10:55:21;2.50;;;2.50;;
56405;SDS011;42305;51.444;-2.584;2022-08-05T10:57:47;2.20;;;2.20;;
56405;SDS011;42305;51.444;-2.584;2022-08-05T11:00:20;3.97;;;2.60;;
56405;SDS011;42305;51.444;-2.584;2022-08-05T11:05:32;2.03;;;2.03;;
56405;SDS011;42305;51.444;-2.584;2022-08-05T11:07:59;1.90;;;1.90;;
56405;SDS011;42305;51.444;-2.584;2022-08-05T11:10:26;2.10;;;2.10;;
56405;SDS011;42305;51.444;-2.584;2022-08-05T11:12:52;2.00;;;2.00;;
56405;SDS011;42305;51.444;-2.584;2022-08-05T11:15:25;2.10;;;2.10;;
56405;SDS011;42305;51.444;-2.584;2022-08-05T11:17:54;2.00;;;2.00;;
56405;SDS011;42305;51.444;-2.584;2022-08-05T11:23:23;1.80;;;1.80;;
56405;SDS011;42305;51.444;-2.584;2022-08-05T11:28:55;2.13;;;2.03;;
56405;SDS011;42305;51.444;-2.584;2022-08-05T11:31:22;1.60;;;1.60;;
56405;SDS011;42305;51.444;-2.584;2022-08-05T11:33:52;1.88;;;1.88;;
56405;SDS011;42305;51.444;-2.584;2022-08-05T11:36:20;1.67;;;1.60;;
56405;SDS011;42305;51.444;-2.584;2022-08-05T11:43:59;1.50;;;1.45;;
56405;SDS011;42305;51.444;-2.584;2022-08-05T11:46:30;1.60;;;1.60;;
56405;SDS011;42305;51.444;-2.584;2022-08-05T11:48:57;1.70;;;1.70;;
56405;SDS011;42305;51.444;-2.584;2022-08-05T11:51:24;1.60;;;1.60;;
56405;SDS011;42305;51.444;-2.584;2022-08-05T11:53:51;1.35;;;1.35;;
56405;SDS011;42305;51.444;-2.584;2022-08-05T11:56:18;1.70;;;1.70;;
56405;SDS011;42305;51.444;-2.584;2022-08-05T11:58:44;1.60;;;1.60;;
56405;SDS011;42305;51.444;-2.584;2022-08-05T12:01:12;1.60;;;1.55;;
56405;SDS011;42305;51.444;-2.584;2022-08-05T12:03:42;1.50;;;1.50;;
56405;SDS011;42305;51.444;-2.584;2022-08-05T12:06:09;1.27;;;1.27;;
56405;SDS011;42305;51.444;-2.584;2022-08-05T12:08:52;1.20;;;1.20;;
56405;SDS011;42305;51.444;-2.584;2022-08-05T12:11:19;1.08;;;1.08;;
56405;SDS011;42305;51.444;-2.584;2022-08-05T12:16:21;1.10;;;1.10;;
56405;SDS011;42305;51.444;-2.584;2022-08-05T12:18:47;0.90;;;0.90;;
56405;SDS011;42305;51.444;-2.584;2022-08-05T12:21:14;1.30;;;1.30;;
56405;SDS011;42305;51.444;-2.584;2022-08-05T12:23:51;1.10;;;1.10;;
56405;SDS011;42305;51.444;-2.584;2022-08-05T12:26:17;1.20;;;1.20;;
56405;SDS011;42305;51.444;-2.584;2022-08-05T12:28:43;1.42;;;1.42;;
56405;SDS011;42305;51.444;-2.584;2022-08-05T12:31:09;1.60;;;1.60;;
56405;SDS011;42305;51.444;-2.584;2022-08-05T12:33:35;3.25;;;1.70;;
56405;SDS011;42305;51.444;-2.584;2022-08-05T12:36:02;1.50;;;1.50;;
56405;SDS011;42305;51.444;-2.584;2022-08-05T12:38:28;1.38;;;1.38;;
56405;SDS011;42305;51.444;-2.584;2022-08-05T12:40:55;1.38;;;1.38;;
56405;SDS011;42305;51.444;-2.584;2022-08-05T12:43:21;0.70;;;0.70;;
56405;SDS011;42305;51.444;-2.584;2022-08-05T12:45:54;0.80;;;0.80;;
56405;SDS011;42305;51.444;-2.584;2022-08-05T12:48:20;0.80;;;0.80;;
56405;SDS011;42305;51.444;-2.584;2022-08-05T12:53:31;4.25;;;1.30;;
56405;SDS011;42305;51.444;-2.584;2022-08-05T12:55:57;0.40;;;0.40;;
56405;SDS011;42305;51.444;-2.584;2022-08-05T12:58:23;0.45;;;0.45;;
56405;SDS011;42305;51.444;-2.584;2022-08-05T13:00:49;1.42;;;1.33;;
56405;SDS011;42305;51.444;-2.584;2022-08-05T13:03:15;0.60;;;0.60;;
56405;SDS011;42305;51.444;-2.584;2022-08-05T13:05:41;0.90;;;0.90;;
56405;SDS011;42305;51.444;-2.584;2022-08-05T13:08:07;0.90;;;0.90;;
56405;SDS011;42305;51.444;-2.584;2022-08-05T13:10:33;6.20;;;1.25;;
56405;SDS011;42305;51.444;-2.584;2022-08-05T13:13:07;1.38;;;1.38;;
56405;SDS011;42305;51.444;-2.584;2022-08-05T13:15:34;1.50;;;1.50;;
56405;SDS011;42305;51.444;-2.584;2022-08-05T13:18:00;1.42;;;1.42;;
56405;SDS011;42305;51.444;-2.584;2022-08-05T13:20:35;1.20;;;1.20;;
56405;SDS011;42305;51.444;-2.584;2022-08-05T13:23:02;1.27;;;1.15;;
56405;SDS011;42305;51.444;-2.584;2022-08-05T13:25:28;0.70;;;0.70;;
56405;SDS011;42305;51.444;-2.584;2022-08-05T13:27:54;0.80;;;0.80;;
56405;SDS011;42305;51.444;-2.584;2022-08-05T13:30:21;1.48;;;1.48;;
56405;SDS011;42305;51.444;-2.584;2022-08-05T13:32:51;0.95;;;0.95;;
56405;SDS011;42305;51.444;-2.584;2022-08-05T13:35:18;0.82;;;0.82;;
56405;SDS011;42305;51.444;-2.584;2022-08-05T13:37:44;0.68;;;0.68;;
56405;SDS011;42305;51.444;-2.584;2022-08-05T13:40:10;0.70;;;0.70;;
56405;SDS011;42305;51.444;-2.584;2022-08-05T13:42:36;0.70;;;0.70;;
56405;SDS011;42305;51.444;-2.584;2022-08-05T13:45:03;0.70;;;0.70;;
56405;SDS011;42305;51.444;-2.584;2022-08-05T13:47:31;0.73;;;0.73;;
56405;SDS011;42305;51.444;-2.584;2022-08-05T13:49:58;0.70;;;0.70;;
56405;SDS011;42305;51.444;-2.584;2022-08-05T13:52:24;0.60;;;0.60;;
56405;SDS011;42305;51.444;-2.584;2022-08-05T13:54:51;0.50;;;0.50;;
56405;SDS011;42305;51.444;-2.584;2022-08-05T13:57:18;0.45;;;0.45;;
56405;SDS011;42305;51.444;-2.584;2022-08-05T13:59:44;0.60;;;0.60;;
56405;SDS011;42305;51.444;-2.584;2022-08-05T14:02:11;0.40;;;0.40;;
56405;SDS011;42305;51.444;-2.584;2022-08-05T14:04:38;0.60;;;0.60;;
56405;SDS011;42305;51.444;-2.584;2022-08-05T14:07:24;0.60;;;0.60;;
56405;SDS011;42305;51.444;-2.584;2022-08-05T14:09:51;2.55;;;1.10;;
56405;SDS011;42305;51.444;-2.584;2022-08-05T14:12:17;7.88;;;1.90;;
56405;SDS011;42305;51.444;-2.584;2022-08-05T14:14:43;1.10;;;1.10;;
56405;SDS011;42305;51.444;-2.584;2022-08-05T14:17:09;1.83;;;1.83;;
56405;SDS011;42305;51.444;-2.584;2022-08-05T14:19:35;1.20;;;1.20;;
56405;SDS011;42305;51.444;-2.584;2022-08-05T14:22:01;1.75;;;1.75;;
56405;SDS011;42305;51.444;-2.584;2022-08-05T14:24:27;0.63;;;0.63;;
56405;SDS011;42305;51.444;-2.584;2022-08-05T14:26:53;1.30;;;1.20;;
56405;SDS011;42305;51.444;-2.584;2022-08-05T14:29:20;0.65;;;0.65;;
56405;SDS011;42305;51.444;-2.584;2022-08-05T14:31:46;0.90;;;0.90;;
56405;SDS011;42305;51.444;-2.584;2022-08-05T14:34:12;0.70;;;0.70;;
56405;SDS011;42305;51.444;-2.584;2022-08-05T14:36:38;0.60;;;0.60;;
56405;SDS011;42305;51.444;-2.584;2022-08-05T14:39:04;0.50;;;0.50;;
56405;SDS011;42305;51.444;-2.584;2022-08-05T14:41:30;0.70;;;0.70;;
56405;SDS011;42305;51.444;-2.584;2022-08-05T14:43:56;0.70;;;0.70;;
56405;SDS011;42305;51.444;-2.584;2022-08-05T14:46:28;0.55;;;0.55;;
56405;SDS011;42305;51.444;-2.584;2022-08-05T14:48:54;1.00;;;0.55;;
56405;SDS011;42305;51.444;-2.584;2022-08-05T14:51:20;0.52;;;0.52;;
56405;SDS011;42305;51.444;-2.584;2022-08-05T14:53:46;0.40;;;0.40;;
56405;SDS011;42305;51.444;-2.584;2022-08-05T14:56:15;0.50;;;0.50;;
56405;SDS011;42305;51.444;-2.584;2022-08-05T14:58:41;0.60;;;0.60;;
56405;SDS011;42305;51.444;-2.584;2022-08-05T15:01:07;1.30;;;0.80;;
56405;SDS011;42305;51.444;-2.584;2022-08-05T15:03:33;1.23;;;1.23;;
56405;SDS011;42305;51.444;-2.584;2022-08-05T15:06:00;0.80;;;0.80;;
56405;SDS011;42305;51.444;-2.584;2022-08-05T15:08:26;1.08;;;1.08;;
56405;SDS011;42305;51.444;-2.584;2022-08-05T15:10:52;1.30;;;1.30;;
56405;SDS011;42305;51.444;-2.584;2022-08-05T15:13:18;1.20;;;1.20;;
56405;SDS011;42305;51.444;-2.584;2022-08-05T15:15:44;1.60;;;1.60;;
56405;SDS011;42305;51.444;-2.584;2022-08-05T15:18:10;1.60;;;1.60;;
56405;SDS011;42305;51.444;-2.584;2022-08-05T15:20:36;1.20;;;1.20;;